Time;durP1;ratioP1;P1;durP2;ratioP2;P2;SDS_P1;SDS_P2;PMS_P1;PMS_P2;Temp;Humidity;BMP_temperature;BMP_pressure;BME280_temperature;BME280_humidity;BME280_pressure;Samples;Min_cycle;Max_cycle;Signal;HPM_P1;HPM_P2
2021/12/07 00:00:08;;;;;;;8.57;5.53;;;;;;;;;;4974942;28;20475;-81
2021/12/07 00:02:34;;;;;;;7.90;5.43;;;;;;;;;;4957446;28;20035;-81
2021/12/07 00:05:00;;;;;;;9.75;6.05;;;;;;;;;;4954441;29;20472;-83
2021/12/07 00:07:26;;;;;;;7.93;5.38;;;;;;;;;;4955140;29;20094;-82
2021/12/07 00:09:52;;;;;;;7.57;5.20;;;;;;;;;;4954815;29;20502;-82
2021/12/07 00:12:18;;;;;;;9.05;6.28;;;;;;;;;;4962559;28;20057;-82
2021/12/07 00:14:44;;;;;;;9.65;6.00;;;;;;;;;;4973797;28;20026;-81
2021/12/07 00:17:10;;;;;;;8.10;5.88;;;;;;;;;;4975081;28;20035;-82
2021/12/07 00:19:36;;;;;;;7.82;5.90;;;;;;;;;;4970217;28;20487;-82
2021/12/07 00:22:04;;;;;;;7.38;5.30;;;;;;;;;;4955392;28;20027;-84
2021/12/07 00:24:30;;;;;;;8.75;6.10;;;;;;;;;;4953856;28;20099;-82
2021/12/07 00:26:56;;;;;;;9.38;5.65;;;;;;;;;;4955540;29;20047;-82
2021/12/07 00:29:22;;;;;;;7.82;5.45;;;;;;;;;;4955639;28;20396;-82
2021/12/07 00:32:05;;;;;;;7.93;5.40;;;;;;;;;;4958445;28;20034;-82
2021/12/07 00:36:57;;;;;;;10.55;5.60;;;;;;;;;;4957866;29;20038;-83
2021/12/07 00:39:24;;;;;;;6.72;5.05;;;;;;;;;;4959168;28;20028;-83
2021/12/07 00:41:50;;;;;;;8.13;4.97;;;;;;;;;;4957437;28;20414;-84
2021/12/07 00:44:17;;;;;;;8.82;5.20;;;;;;;;;;4957504;28;20024;-84
2021/12/07 00:46:44;;;;;;;9.95;5.53;;;;;;;;;;4955215;28;20494;-83
2021/12/07 00:49:10;;;;;;;9.48;5.38;;;;;;;;;;4954060;28;20050;-83
2021/12/07 00:51:36;;;;;;;6.13;4.38;;;;;;;;;;4969834;28;20118;-83
2021/12/07 00:54:02;;;;;;;7.85;4.60;;;;;;;;;;4972937;28;20066;-83
2021/12/07 00:56:29;;;;;;;6.75;5.05;;;;;;;;;;4973176;28;20038;-83
2021/12/07 00:58:55;;;;;;;9.23;5.75;;;;;;;;;;4973296;28;20027;-84
2021/12/07 01:01:21;;;;;;;7.05;4.70;;;;;;;;;;4965092;28;20094;-83
2021/12/07 01:03:48;;;;;;;6.88;4.63;;;;;;;;;;4952332;29;20028;-83
2021/12/07 01:24:59;;;;;;;4.90;3.15;;;;;;;;;;4958477;28;20054;-84
2021/12/07 01:27:25;;;;;;;3.83;3.33;;;;;;;;;;4958067;28;20037;-83
2021/12/07 01:30:16;;;;;;;6.75;3.33;;;;;;;;;;4959115;29;20023;-83
2021/12/07 01:43:37;;;;;;;6.88;3.78;;;;;;;;;;4956943;28;20118;-85
2021/12/07 01:59:34;;;;;;;4.20;3.40;;;;;;;;;;4974957;28;20038;-82
2021/12/07 02:02:01;;;;;;;3.63;2.60;;;;;;;;;;4961503;28;20035;-84
2021/12/07 02:04:27;;;;;;;5.10;2.65;;;;;;;;;;4955246;28;20623;-83
2021/12/07 02:06:54;;;;;;;2.63;1.92;;;;;;;;;;4956694;28;20531;-83
2021/12/07 02:09:20;;;;;;;4.22;2.08;;;;;;;;;;4956229;29;20472;-84
2021/12/07 02:11:49;;;;;;;3.55;1.55;;;;;;;;;;4960910;28;20118;-81
2021/12/07 02:14:18;;;;;;;3.90;1.80;;;;;;;;;;4975960;28;20015;-82
2021/12/07 02:16:45;;;;;;;3.75;1.73;;;;;;;;;;4966469;28;20035;-82
2021/12/07 02:19:12;;;;;;;2.63;1.92;;;;;;;;;;4956113;28;20110;-82
2021/12/07 02:21:38;;;;;;;4.68;1.77;;;;;;;;;;4956710;29;20028;-81
2021/12/07 02:24:04;;;;;;;2.03;1.73;;;;;;;;;;4954738;28;20510;-82
2021/12/07 02:26:30;;;;;;;3.10;2.00;;;;;;;;;;4954665;28;20031;-80
2021/12/07 02:28:57;;;;;;;2.20;1.83;;;;;;;;;;4956534;28;20058;-82
2021/12/07 02:31:23;;;;;;;3.00;1.70;;;;;;;;;;4954741;28;20058;-82
2021/12/07 02:33:49;;;;;;;6.28;1.50;;;;;;;;;;4963296;28;20101;-81
2021/12/07 02:36:16;;;;;;;1.75;1.50;;;;;;;;;;4971289;28;20031;-81
2021/12/07 02:38:42;;;;;;;1.30;1.20;;;;;;;;;;4970516;28;20046;-83
2021/12/07 02:41:08;;;;;;;2.05;1.70;;;;;;;;;;4970831;28;20095;-82
2021/12/07 02:43:34;;;;;;;3.20;1.95;;;;;;;;;;4967146;28;20031;-83
2021/12/07 02:46:00;;;;;;;4.97;2.17;;;;;;;;;;4958556;28;20031;-82
2021/12/07 02:48:27;;;;;;;8.52;2.15;;;;;;;;;;4957856;28;20114;-84
2021/12/07 02:50:53;;;;;;;3.47;2.03;;;;;;;;;;4969074;28;20031;-82
2021/12/07 02:53:26;;;;;;;4.43;2.17;;;;;;;;;;4939812;28;1075841;-82
2021/12/07 02:55:52;;;;;;;5.15;2.03;;;;;;;;;;4969717;28;20031;-84
2021/12/07 02:58:19;;;;;;;4.03;2.03;;;;;;;;;;4957941;28;20031;-84
2021/12/07 03:00:53;;;;;;;3.13;1.98;;;;;;;;;;4959802;28;20466;-84
2021/12/07 03:03:19;;;;;;;2.45;1.90;;;;;;;;;;4957261;28;20043;-83
2021/12/07 03:05:56;;;;;;;8.80;2.03;;;;;;;;;;4956894;28;20035;-84
2021/12/07 03:27:24;;;;;;;6.65;2.25;;;;;;;;;;4956565;28;20073;-82
2021/12/07 03:29:50;;;;;;;5.20;2.08;;;;;;;;;;4955033;28;20550;-82
2021/12/07 03:32:17;;;;;;;6.32;2.30;;;;;;;;;;4956956;28;20023;-82
2021/12/07 03:34:43;;;;;;;8.45;1.90;;;;;;;;;;4956179;28;20027;-80
2021/12/07 03:37:09;;;;;;;11.27;2.50;;;;;;;;;;4954697;29;20041;-82
2021/12/07 03:39:35;;;;;;;9.07;2.50;;;;;;;;;;4956585;29;20034;-82
2021/12/07 03:42:01;;;;;;;7.00;2.30;;;;;;;;;;4953902;28;20529;-82
2021/12/07 03:44:27;;;;;;;8.23;2.20;;;;;;;;;;4955220;28;20038;-82
2021/12/07 03:46:53;;;;;;;10.18;2.83;;;;;;;;;;4954334;29;20027;-81
2021/12/07 03:49:19;;;;;;;9.13;2.25;;;;;;;;;;4954949;29;20050;-82
2021/12/07 03:51:45;;;;;;;10.80;2.28;;;;;;;;;;4973592;28;20095;-82
2021/12/07 03:54:11;;;;;;;11.00;3.10;;;;;;;;;;4963812;28;20050;-82
2021/12/07 03:56:37;;;;;;;7.93;3.28;;;;;;;;;;4962313;28;20606;-82
2021/12/07 03:59:03;;;;;;;6.78;2.92;;;;;;;;;;4957847;28;20028;-82
2021/12/07 04:01:29;;;;;;;14.18;4.00;;;;;;;;;;4966842;28;20027;-82
2021/12/07 04:03:56;;;;;;;9.93;2.97;;;;;;;;;;4976668;28;20098;-82
2021/12/07 04:06:22;;;;;;;9.57;3.80;;;;;;;;;;4976157;28;20023;-81
2021/12/07 04:08:49;;;;;;;8.98;3.55;;;;;;;;;;4975644;28;20052;-82
2021/12/07 04:11:15;;;;;;;10.00;3.88;;;;;;;;;;4976534;28;20027;-82
2021/12/07 04:13:44;;;;;;;17.98;3.90;;;;;;;;;;4954334;28;20027;-81
2021/12/07 04:16:11;;;;;;;14.75;3.90;;;;;;;;;;4954267;29;20117;-82
2021/12/07 04:18:38;;;;;;;10.45;4.55;;;;;;;;;;4956185;29;20039;-82
2021/12/07 04:21:04;;;;;;;7.63;3.45;;;;;;;;;;4956308;28;20509;-82
2021/12/07 04:23:31;;;;;;;10.80;4.18;;;;;;;;;;4954522;28;20031;-83
2021/12/07 04:25:58;;;;;;;12.82;3.85;;;;;;;;;;4956271;28;20085;-83
2021/12/07 04:28:24;;;;;;;10.57;3.55;;;;;;;;;;4956107;28;20027;-82
2021/12/07 04:30:50;;;;;;;11.50;4.03;;;;;;;;;;4956202;28;20081;-83
2021/12/07 04:33:16;;;;;;;6.72;3.28;;;;;;;;;;4955728;29;20024;-82
2021/12/07 04:35:44;;;;;;;6.78;4.25;;;;;;;;;;4956279;28;20055;-83
2021/12/07 04:38:11;;;;;;;12.15;3.63;;;;;;;;;;4956720;28;20039;-83
2021/12/07 04:40:37;;;;;;;11.32;4.28;;;;;;;;;;4957211;29;20051;-83
2021/12/07 04:43:03;;;;;;;11.48;3.67;;;;;;;;;;4957297;28;20466;-82
2021/12/07 04:59:03;;;;;;;12.35;3.70;;;;;;;;;;4967139;28;20098;-82
2021/12/07 05:01:31;;;;;;;12.63;3.25;;;;;;;;;;4965924;28;20121;-82
2021/12/07 05:03:59;;;;;;;9.98;3.35;;;;;;;;;;4976508;28;20051;-82
2021/12/07 05:06:29;;;;;;;8.05;3.58;;;;;;;;;;4975133;28;20486;-83
2021/12/07 05:09:02;;;;;;;13.15;3.30;;;;;;;;;;4976240;28;20050;-83
2021/12/07 05:11:47;;;;;;;22.70;4.60;;;;;;;;;;4974582;28;20054;-83
2021/12/07 05:14:17;;;;;;;14.15;4.57;;;;;;;;;;4964758;28;20375;-82
2021/12/07 05:25:02;;;;;;;15.25;4.50;;;;;;;;;;4970763;28;20037;-83
2021/12/07 05:38:28;;;;;;;20.08;3.45;;;;;;;;;;4965107;28;20093;-83
2021/12/07 05:40:54;;;;;;;14.35;3.13;;;;;;;;;;4963796;28;20031;-82
2021/12/07 05:43:20;;;;;;;12.63;3.28;;;;;;;;;;4993238;28;20076;-83
2021/12/07 05:45:46;;;;;;;13.10;3.05;;;;;;;;;;4963358;29;20043;-83
2021/12/07 05:48:13;;;;;;;12.23;3.03;;;;;;;;;;4961755;28;20441;-83
2021/12/07 05:50:40;;;;;;;7.43;2.47;;;;;;;;;;4970871;28;20094;-83
2021/12/07 05:53:07;;;;;;;14.02;2.92;;;;;;;;;;4981215;28;20039;-84
2021/12/07 05:55:33;;;;;;;12.57;3.40;;;;;;;;;;4960300;28;20031;-83
2021/12/07 05:57:59;;;;;;;17.00;3.95;;;;;;;;;;4955412;29;20085;-84
2021/12/07 06:00:30;;;;;;;18.58;3.28;;;;;;;;;;4955275;28;20395;-82
2021/12/07 06:02:57;;;;;;;10.77;3.00;;;;;;;;;;4977195;28;20027;-82
2021/12/07 06:05:24;;;;;;;13.38;3.33;;;;;;;;;;4963722;28;20467;-83
2021/12/07 06:07:50;;;;;;;10.63;3.90;;;;;;;;;;4957027;28;20030;-83
2021/12/07 06:10:17;;;;;;;9.10;2.85;;;;;;;;;;4960606;28;20027;-84
2021/12/07 06:12:43;;;;;;;13.00;2.83;;;;;;;;;;4972297;28;20027;-84
2021/12/07 06:15:09;;;;;;;16.52;2.90;;;;;;;;;;4964385;28;20027;-84
2021/12/07 06:17:36;;;;;;;14.45;2.83;;;;;;;;;;4959452;29;20024;-87
2021/12/07 06:20:03;;;;;;;10.57;2.60;;;;;;;;;;4966268;28;20035;-85
2021/12/07 06:22:29;;;;;;;14.20;2.65;;;;;;;;;;4961205;28;20031;-84
2021/12/07 06:24:55;;;;;;;13.13;3.97;;;;;;;;;;4968783;28;20032;-83
2021/12/07 06:27:21;;;;;;;8.88;3.08;;;;;;;;;;4966229;28;20069;-81
2021/12/07 06:29:47;;;;;;;8.48;3.10;;;;;;;;;;4969210;28;20043;-82
2021/12/07 06:32:13;;;;;;;8.98;2.85;;;;;;;;;;4961590;28;20436;-79
2021/12/07 06:34:39;;;;;;;10.73;3.40;;;;;;;;;;4958385;28;20035;-82
2021/12/07 06:37:06;;;;;;;10.32;2.65;;;;;;;;;;4966883;28;20034;-82
2021/12/07 06:39:32;;;;;;;17.15;3.60;;;;;;;;;;4980503;28;20705;-81
2021/12/07 06:41:58;;;;;;;8.45;3.35;;;;;;;;;;4960265;29;20096;-82
2021/12/07 06:44:24;;;;;;;9.80;3.10;;;;;;;;;;4956706;28;20515;-84
2021/12/07 06:46:50;;;;;;;16.80;3.40;;;;;;;;;;4957238;28;20114;-84
2021/12/07 06:49:17;;;;;;;18.25;3.35;;;;;;;;;;4958009;28;20024;-82
2021/12/07 06:51:43;;;;;;;19.35;3.10;;;;;;;;;;4960343;28;20086;-83
2021/12/07 06:54:09;;;;;;;18.10;3.35;;;;;;;;;;4965347;28;20061;-83
2021/12/07 06:56:35;;;;;;;16.92;3.30;;;;;;;;;;4976153;28;20034;-82
2021/12/07 06:59:01;;;;;;;11.15;3.95;;;;;;;;;;4965461;28;20543;-82
2021/12/07 07:01:27;;;;;;;8.98;3.00;;;;;;;;;;4954192;28;20061;-82
2021/12/07 07:03:53;;;;;;;14.38;3.25;;;;;;;;;;4956299;29;20043;-82
2021/12/07 07:06:19;;;;;;;17.88;3.33;;;;;;;;;;4955033;29;20027;-82
2021/12/07 07:08:45;;;;;;;17.90;4.18;;;;;;;;;;4956860;28;20050;-82
2021/12/07 07:11:11;;;;;;;8.23;2.60;;;;;;;;;;4955946;28;20027;-82
2021/12/07 07:13:37;;;;;;;8.75;2.78;;;;;;;;;;4959436;28;20082;-82
2021/12/07 07:16:04;;;;;;;12.40;2.65;;;;;;;;;;4955363;28;20106;-83
2021/12/07 07:18:30;;;;;;;9.98;2.63;;;;;;;;;;5026699;28;20071;-84
2021/12/07 07:20:56;;;;;;;11.23;3.95;;;;;;;;;;4941202;28;20035;-83
2021/12/07 07:23:23;;;;;;;9.43;3.15;;;;;;;;;;4956424;28;20039;-83
2021/12/07 07:25:49;;;;;;;12.07;2.88;;;;;;;;;;5035536;28;20029;-83
2021/12/07 07:28:16;;;;;;;8.18;2.47;;;;;;;;;;4959237;28;20027;-82
2021/12/07 07:30:42;;;;;;;21.15;3.70;;;;;;;;;;4956061;28;20537;-84
2021/12/07 07:33:08;;;;;;;11.52;2.60;;;;;;;;;;4956370;29;20031;-82
2021/12/07 07:35:34;;;;;;;17.42;3.53;;;;;;;;;;4957026;28;20450;-83
2021/12/07 07:38:00;;;;;;;11.45;3.42;;;;;;;;;;4959117;29;20023;-84
2021/12/07 07:40:26;;;;;;;15.25;3.45;;;;;;;;;;4957524;28;20115;-84
2021/12/07 07:42:53;;;;;;;7.13;2.47;;;;;;;;;;4956579;28;20441;-84
2021/12/07 07:45:19;;;;;;;11.23;2.90;;;;;;;;;;4958284;29;20022;-83
2021/12/07 07:47:45;;;;;;;11.63;2.78;;;;;;;;;;4954009;28;20091;-83
2021/12/07 07:50:12;;;;;;;11.80;2.83;;;;;;;;;;4960144;28;20031;-84
2021/12/07 07:52:38;;;;;;;10.38;2.92;;;;;;;;;;4950197;28;20040;-83
2021/12/07 07:55:04;;;;;;;9.35;3.95;;;;;;;;;;4957301;28;20039;-83
2021/12/07 07:57:30;;;;;;;16.90;3.38;;;;;;;;;;4956768;28;20146;-81
2021/12/07 07:59:56;;;;;;;14.18;2.78;;;;;;;;;;4956642;29;20031;-82
2021/12/07 08:02:22;;;;;;;16.50;3.25;;;;;;;;;;4957995;28;20031;-81
2021/12/07 08:04:48;;;;;;;8.38;2.95;;;;;;;;;;4952095;28;20039;-81
2021/12/07 08:07:15;;;;;;;12.90;2.92;;;;;;;;;;4951986;28;20035;-80
2021/12/07 08:09:41;;;;;;;16.50;2.70;;;;;;;;;;4951696;29;20091;-80
2021/12/07 08:12:07;;;;;;;11.18;2.13;;;;;;;;;;4960175;28;20034;-81
2021/12/07 08:14:33;;;;;;;13.27;2.83;;;;;;;;;;4974319;28;20031;-82
2021/12/07 08:16:59;;;;;;;11.20;2.80;;;;;;;;;;4964314;28;20031;-81
2021/12/07 08:19:25;;;;;;;8.10;2.00;;;;;;;;;;4951445;29;20118;-82
2021/12/07 08:21:52;;;;;;;15.75;3.28;;;;;;;;;;4953713;28;20062;-82
2021/12/07 08:24:18;;;;;;;11.32;2.00;;;;;;;;;;4954230;28;20031;-82
2021/12/07 08:26:44;;;;;;;11.02;1.80;;;;;;;;;;4953037;28;20039;-82
2021/12/07 08:29:10;;;;;;;4.72;2.03;;;;;;;;;;4969449;28;20023;-84
2021/12/07 08:31:36;;;;;;;11.52;1.95;;;;;;;;;;4953702;29;20066;-80
2021/12/07 08:34:02;;;;;;;9.05;1.73;;;;;;;;;;4953645;28;20038;-82
2021/12/07 08:36:29;;;;;;;9.98;2.03;;;;;;;;;;4956355;28;20034;-81
2021/12/07 08:38:55;;;;;;;7.80;1.88;;;;;;;;;;4953682;28;20038;-81
2021/12/07 08:41:21;;;;;;;9.30;2.25;;;;;;;;;;4954967;28;20098;-81
2021/12/07 08:43:47;;;;;;;15.73;2.58;;;;;;;;;;4960461;28;20058;-83
2021/12/07 08:46:15;;;;;;;7.97;1.80;;;;;;;;;;4956433;28;20051;-83
2021/12/07 08:48:42;;;;;;;7.95;2.42;;;;;;;;;;4956837;28;20023;-82
2021/12/07 08:51:09;;;;;;;9.57;2.30;;;;;;;;;;4963258;28;20024;-83
2021/12/07 08:53:38;;;;;;;7.47;1.80;;;;;;;;;;4962990;28;20054;-83
2021/12/07 09:01:34;;;;;;;13.27;3.13;;;;;;;;;;4971665;28;20204;-79
2021/12/07 09:04:01;;;;;;;11.43;2.58;;;;;;;;;;4964728;28;20039;-81
2021/12/07 09:06:28;;;;;;;7.53;2.40;;;;;;;;;;4968703;29;20463;-81
2021/12/07 09:08:54;;;;;;;9.50;2.25;;;;;;;;;;4969014;29;20035;-82
2021/12/07 09:11:20;;;;;;;11.57;2.97;;;;;;;;;;4961229;28;20035;-80
2021/12/07 09:13:46;;;;;;;9.57;2.38;;;;;;;;;;4961167;28;20391;-81
2021/12/07 09:16:14;;;;;;;8.77;2.00;;;;;;;;;;4958765;28;20028;-81
2021/12/07 09:18:40;;;;;;;10.00;2.22;;;;;;;;;;4958154;28;20078;-83
2021/12/07 09:21:07;;;;;;;10.93;2.58;;;;;;;;;;4959237;29;20067;-82
2021/12/07 09:23:33;;;;;;;6.18;2.30;;;;;;;;;;4959717;29;20031;-80
2021/12/07 09:25:59;;;;;;;14.07;2.63;;;;;;;;;;4960156;28;20440;-82
2021/12/07 09:28:25;;;;;;;12.00;3.90;;;;;;;;;;4961067;28;20050;-82
2021/12/07 09:30:52;;;;;;;8.40;2.08;;;;;;;;;;4957627;28;20024;-82
2021/12/07 09:33:23;;;;;;;11.43;2.85;;;;;;;;;;4957821;28;20555;-82
2021/12/07 09:35:49;;;;;;;11.45;2.88;;;;;;;;;;4958501;28;20031;-82
2021/12/07 09:38:16;;;;;;;11.75;3.08;;;;;;;;;;4958149;28;20414;-82
2021/12/07 09:40:43;;;;;;;12.43;2.53;;;;;;;;;;4955367;28;20085;-82
2021/12/07 09:43:09;;;;;;;13.55;2.88;;;;;;;;;;4957732;28;20439;-81
2021/12/07 09:45:36;;;;;;;9.25;2.33;;;;;;;;;;4958044;28;20043;-82
2021/12/07 09:48:03;;;;;;;11.90;2.63;;;;;;;;;;4959017;28;20031;-82
2021/12/07 09:50:29;;;;;;;11.13;2.35;;;;;;;;;;4965511;28;20027;-82
2021/12/07 09:52:55;;;;;;;12.38;2.33;;;;;;;;;;4957538;28;20273;-81
2021/12/07 09:55:22;;;;;;;12.38;3.28;;;;;;;;;;4948764;28;20108;-82
2021/12/07 09:57:49;;;;;;;8.40;2.35;;;;;;;;;;4956150;29;20115;-82
2021/12/07 10:00:17;;;;;;;8.07;2.60;;;;;;;;;;4957231;29;20035;-83
2021/12/07 10:02:43;;;;;;;11.52;3.33;;;;;;;;;;4960884;28;20105;-81
2021/12/07 10:05:10;;;;;;;9.85;2.78;;;;;;;;;;4954653;29;20041;-81
2021/12/07 10:07:37;;;;;;;16.65;3.88;;;;;;;;;;4951149;28;20047;-82
2021/12/07 10:10:04;;;;;;;17.17;3.28;;;;;;;;;;4954220;28;20062;-80
2021/12/07 10:12:30;;;;;;;24.92;4.30;;;;;;;;;;4964616;28;20027;-80
2021/12/07 10:15:04;;;;;;;13.15;3.00;;;;;;;;;;4953299;28;20027;-80
2021/12/07 10:17:30;;;;;;;15.52;3.80;;;;;;;;;;4956946;28;20548;-80
2021/12/07 10:19:56;;;;;;;13.50;2.58;;;;;;;;;;4957513;29;20027;-81
2021/12/07 10:22:22;;;;;;;13.10;2.78;;;;;;;;;;4957507;28;20036;-81
2021/12/07 10:24:54;;;;;;;9.32;3.10;;;;;;;;;;4957269;28;20544;-80
2021/12/07 10:27:36;;;;;;;15.85;3.35;;;;;;;;;;4956537;28;20520;-79
2021/12/07 10:30:07;;;;;;;9.45;3.38;;;;;;;;;;4960263;28;20055;-80
2021/12/07 10:32:33;;;;;;;11.90;3.58;;;;;;;;;;4949271;28;20080;-80
2021/12/07 10:35:02;;;;;;;12.30;2.83;;;;;;;;;;4950403;28;20043;-79
2021/12/07 10:37:28;;;;;;;12.85;2.80;;;;;;;;;;4956667;28;20483;-81
2021/12/07 10:39:57;;;;;;;13.30;3.13;;;;;;;;;;4955416;28;20130;-80
2021/12/07 10:42:25;;;;;;;15.23;2.55;;;;;;;;;;4953467;28;20031;-82
2021/12/07 10:44:52;;;;;;;11.82;2.88;;;;;;;;;;4955590;28;20050;-80
2021/12/07 10:47:22;;;;;;;17.08;2.95;;;;;;;;;;4956734;28;20038;-80
2021/12/07 10:50:01;;;;;;;10.88;2.33;;;;;;;;;;4959477;28;20498;-81
2021/12/07 10:52:42;;;;;;;8.88;3.10;;;;;;;;;;4961448;28;20031;-82
2021/12/07 10:55:10;;;;;;;12.98;2.72;;;;;;;;;;4957337;28;20398;-81
2021/12/07 10:57:38;;;;;;;14.52;2.83;;;;;;;;;;4957271;29;20109;-81
2021/12/07 11:00:04;;;;;;;11.00;2.78;;;;;;;;;;4958632;28;20062;-83
2021/12/07 11:02:33;;;;;;;11.05;2.88;;;;;;;;;;4958923;28;20034;-81
2021/12/07 11:05:01;;;;;;;11.70;3.00;;;;;;;;;;4955972;29;20047;-83
2021/12/07 11:07:28;;;;;;;4.88;1.92;;;;;;;;;;4957931;29;20027;-82
2021/12/07 11:12:35;;;;;;;14.65;3.15;;;;;;;;;;4975423;28;20027;-83
2021/12/07 11:15:02;;;;;;;8.60;2.30;;;;;;;;;;4961526;28;20032;-81
2021/12/07 11:17:33;;;;;;;13.52;2.67;;;;;;;;;;4957386;28;20130;-82
2021/12/07 11:20:00;;;;;;;11.32;2.17;;;;;;;;;;4955757;28;20031;-83
2021/12/07 11:22:31;;;;;;;11.48;2.88;;;;;;;;;;4956432;29;20050;-85
2021/12/07 11:24:57;;;;;;;9.80;2.63;;;;;;;;;;4956694;28;20431;-83
2021/12/07 11:30:13;;;;;;;13.07;2.65;;;;;;;;;;4967243;28;20088;-82
2021/12/07 11:32:39;;;;;;;;;;;;;;;;;;4959308;28;20032;-83
2021/12/07 11:35:11;;;;;;;10.45;2.33;;;;;;;;;;4961545;28;19911;-83
2021/12/07 11:37:38;;;;;;;12.82;2.85;;;;;;;;;;4967759;28;20034;-82
2021/12/07 11:40:06;;;;;;;10.00;2.50;;;;;;;;;;4972344;28;20130;-84
2021/12/07 11:42:36;;;;;;;10.98;2.35;;;;;;;;;;4962647;28;20042;-81
2021/12/07 11:45:06;;;;;;;11.30;2.60;;;;;;;;;;4955836;28;20031;-82
2021/12/07 11:47:34;;;;;;;9.20;2.28;;;;;;;;;;4962178;28;20410;-85
2021/12/07 11:50:10;;;;;;;9.88;2.72;;;;;;;;;;4962721;28;20343;-83
2021/12/07 11:52:36;;;;;;;6.70;2.38;;;;;;;;;;4964462;28;20043;-83
2021/12/07 11:55:03;;;;;;;10.70;2.92;;;;;;;;;;4964295;28;20038;-83
2021/12/07 11:57:29;;;;;;;14.82;2.30;;;;;;;;;;4964940;28;20434;-83
2021/12/07 11:59:55;;;;;;;12.35;2.63;;;;;;;;;;4963675;29;20061;-83
2021/12/07 12:02:23;;;;;;;14.70;2.80;;;;;;;;;;4964235;28;20031;-84
2021/12/07 12:04:49;;;;;;;6.38;2.30;;;;;;;;;;4964045;28;20039;-83
2021/12/07 12:07:15;;;;;;;9.55;2.08;;;;;;;;;;4965392;28;20117;-84
2021/12/07 12:09:47;;;;;;;12.52;2.58;;;;;;;;;;4963699;28;20083;-82
2021/12/07 12:12:20;;;;;;;8.07;2.33;;;;;;;;;;4958699;28;20015;-83
2021/12/07 12:14:46;;;;;;;8.85;2.47;;;;;;;;;;4963835;28;20028;-82
2021/12/07 12:17:12;;;;;;;7.53;2.20;;;;;;;;;;4953608;28;20066;-83
2021/12/07 12:19:57;;;;;;;5.30;2.10;;;;;;;;;;4959061;28;20043;-82
2021/12/07 12:22:26;;;;;;;11.90;2.13;;;;;;;;;;4965666;28;20027;-82
2021/12/07 12:24:54;;;;;;;15.73;2.42;;;;;;;;;;4954236;28;20058;-84
2021/12/07 12:27:19;;;;;;;10.63;2.58;;;;;;;;;;5028527;28;20034;-84
2021/12/07 12:29:49;;;;;;;7.05;2.30;;;;;;;;;;4973286;28;20122;-83
2021/12/07 12:32:25;;;;;;;8.13;2.00;;;;;;;;;;4959247;28;20031;-84
2021/12/07 12:34:51;;;;;;;13.30;2.70;;;;;;;;;;4961708;28;20027;-83
2021/12/07 12:37:19;;;;;;;6.35;2.05;;;;;;;;;;4961106;28;20028;-83
2021/12/07 12:39:53;;;;;;;10.57;2.45;;;;;;;;;;4943854;28;20040;-82
2021/12/07 12:42:28;;;;;;;8.60;2.92;;;;;;;;;;4944101;28;20466;-82
2021/12/07 12:45:02;;;;;;;8.15;2.67;;;;;;;;;;4969608;28;20031;-83
2021/12/07 12:47:29;;;;;;;10.20;2.30;;;;;;;;;;4964617;28;20084;-83
2021/12/07 12:49:55;;;;;;;7.05;2.00;;;;;;;;;;5031313;28;20031;-83
2021/12/07 12:52:38;;;;;;;6.00;2.15;;;;;;;;;;4979023;28;20096;-83
2021/12/07 12:55:04;;;;;;;10.43;2.70;;;;;;;;;;4981568;28;20038;-83
2021/12/07 12:57:30;;;;;;;11.07;2.03;;;;;;;;;;4981954;28;20103;-82
2021/12/07 12:59:56;;;;;;;12.55;2.25;;;;;;;;;;4965266;28;20035;-83
2021/12/07 13:02:22;;;;;;;6.97;1.73;;;;;;;;;;4960034;28;20035;-85
2021/12/07 13:05:04;;;;;;;11.35;2.65;;;;;;;;;;4957784;28;20066;-83
2021/12/07 13:07:30;;;;;;;10.32;2.05;;;;;;;;;;4958424;28;20032;-83
2021/12/07 13:09:57;;;;;;;7.47;2.70;;;;;;;;;;4962172;28;20044;-83
2021/12/07 13:12:26;;;;;;;6.38;2.17;;;;;;;;;;4979065;28;20027;-84
2021/12/07 13:14:56;;;;;;;7.32;2.00;;;;;;;;;;4970474;28;20054;-84
2021/12/07 13:17:37;;;;;;;8.50;2.00;;;;;;;;;;4971858;29;20023;-83
2021/12/07 13:20:03;;;;;;;8.10;2.20;;;;;;;;;;4972292;28;20011;-83
2021/12/07 13:22:41;;;;;;;9.15;2.17;;;;;;;;;;4968019;28;20024;-82
2021/12/07 13:25:15;;;;;;;13.02;2.75;;;;;;;;;;5039685;28;20031;-84
2021/12/07 13:28:04;;;;;;;11.02;1.88;;;;;;;;;;4966469;28;20522;-85
2021/12/07 13:30:47;;;;;;;6.28;2.35;;;;;;;;;;5060385;28;20010;-84
2021/12/07 13:33:22;;;;;;;11.00;1.90;;;;;;;;;;4978282;28;20030;-84
2021/12/07 13:35:52;;;;;;;8.93;1.85;;;;;;;;;;4974197;28;20081;-84
2021/12/07 13:38:24;;;;;;;5.00;1.70;;;;;;;;;;4968032;28;20035;-85
2021/12/07 13:41:09;;;;;;;10.02;2.38;;;;;;;;;;4965885;28;20035;-84
2021/12/07 13:43:37;;;;;;;7.15;2.25;;;;;;;;;;4962687;28;20055;-84
2021/12/07 13:46:08;;;;;;;9.25;2.17;;;;;;;;;;4967278;28;20036;-84
2021/12/07 13:48:34;;;;;;;11.65;2.55;;;;;;;;;;4968001;29;20020;-84
2021/12/07 13:51:00;;;;;;;7.15;2.03;;;;;;;;;;4977868;28;20031;-84
2021/12/07 13:53:27;;;;;;;7.22;2.10;;;;;;;;;;4969260;28;20055;-84
2021/12/07 13:55:53;;;;;;;6.03;2.15;;;;;;;;;;4964545;28;20027;-84
2021/12/07 13:58:19;;;;;;;5.78;1.75;;;;;;;;;;4982671;28;20023;-83
2021/12/07 14:00:45;;;;;;;16.00;1.75;;;;;;;;;;4978743;28;20037;-84
2021/12/07 14:03:14;;;;;;;16.95;3.65;;;;;;;;;;4983781;28;20038;-82
2021/12/07 14:05:42;;;;;;;4.63;2.10;;;;;;;;;;4975075;28;20450;-84
2021/12/07 14:08:13;;;;;;;7.00;1.63;;;;;;;;;;4965780;28;20411;-83
2021/12/07 14:10:46;;;;;;;3.90;1.88;;;;;;;;;;4961289;28;20099;-83
2021/12/07 14:13:13;;;;;;;11.68;2.10;;;;;;;;;;4970706;28;20037;-81
2021/12/07 14:15:41;;;;;;;6.38;1.88;;;;;;;;;;4971590;28;20043;-82
2021/12/07 14:18:12;;;;;;;11.70;2.10;;;;;;;;;;4956924;28;20028;-82
2021/12/07 14:20:48;;;;;;;5.78;2.40;;;;;;;;;;4953651;28;20413;-82
2021/12/07 14:23:14;;;;;;;9.55;2.15;;;;;;;;;;4956984;29;20035;-83
2021/12/07 14:25:50;;;;;;;11.88;2.17;;;;;;;;;;4956165;28;20028;-81
2021/12/07 14:28:45;;;;;;;9.18;2.17;;;;;;;;;;4972799;28;20027;-82
2021/12/07 14:31:13;;;;;;;5.68;1.45;;;;;;;;;;4988137;28;20038;-83
2021/12/07 14:33:41;;;;;;;13.90;2.38;;;;;;;;;;4964371;28;20031;-83
2021/12/07 14:36:07;;;;;;;6.88;1.85;;;;;;;;;;4962510;28;20050;-82
2021/12/07 14:38:34;;;;;;;5.50;1.77;;;;;;;;;;4962746;28;20027;-82
2021/12/07 14:41:05;;;;;;;7.07;1.85;;;;;;;;;;4962601;29;20031;-83
2021/12/07 14:43:31;;;;;;;10.90;2.17;;;;;;;;;;4963525;28;20031;-82
2021/12/07 14:45:58;;;;;;;11.23;2.33;;;;;;;;;;4944369;28;20034;-82
2021/12/07 14:48:24;;;;;;;9.95;1.88;;;;;;;;;;4944747;28;20042;-83
2021/12/07 14:50:50;;;;;;;14.13;2.60;;;;;;;;;;4965674;28;20023;-83
2021/12/07 14:53:16;;;;;;;10.68;2.47;;;;;;;;;;4982735;28;20027;-83
2021/12/07 14:55:42;;;;;;;13.25;3.03;;;;;;;;;;4982294;28;20019;-83
2021/12/07 14:58:08;;;;;;;9.45;2.67;;;;;;;;;;4980869;28;20053;-83
2021/12/07 15:00:34;;;;;;;12.55;2.75;;;;;;;;;;4981455;28;20363;-83
2021/12/07 15:03:01;;;;;;;13.93;2.75;;;;;;;;;;4963662;29;20471;-83
2021/12/07 15:05:32;;;;;;;8.95;2.72;;;;;;;;;;4961814;29;20024;-84
2021/12/07 15:07:58;;;;;;;8.70;2.38;;;;;;;;;;4962566;29;20023;-82
2021/12/07 15:10:24;;;;;;;5.78;2.40;;;;;;;;;;4966702;29;20032;-82
2021/12/07 15:12:50;;;;;;;11.38;2.42;;;;;;;;;;4968633;29;20119;-84
2021/12/07 15:15:17;;;;;;;23.00;2.80;;;;;;;;;;4972872;28;20022;-82
2021/12/07 15:17:43;;;;;;;9.93;2.90;;;;;;;;;;4972463;29;20023;-83
2021/12/07 15:20:11;;;;;;;8.23;3.95;;;;;;;;;;4974366;29;20056;-83
2021/12/07 15:22:37;;;;;;;10.68;4.07;;;;;;;;;;4974532;28;20122;-83
2021/12/07 15:25:04;;;;;;;10.63;4.05;;;;;;;;;;4973366;28;20011;-84
2021/12/07 15:27:30;;;;;;;21.02;3.53;;;;;;;;;;4976030;28;20055;-80
2021/12/07 15:29:57;;;;;;;7.40;3.10;;;;;;;;;;4991164;28;20054;-84
2021/12/07 15:32:23;;;;;;;6.63;3.00;;;;;;;;;;4991018;28;20011;-83
2021/12/07 15:34:51;;;;;;;9.68;3.05;;;;;;;;;;4987884;28;20031;-84
2021/12/07 15:37:18;;;;;;;11.50;4.25;;;;;;;;;;4982160;28;20038;-84
2021/12/07 15:39:47;;;;;;;12.43;3.90;;;;;;;;;;4973946;28;20054;-83
2021/12/07 15:42:19;;;;;;;15.05;4.72;;;;;;;;;;4971377;28;20022;-85
2021/12/07 15:44:53;;;;;;;9.18;3.42;;;;;;;;;;4970634;28;20031;-81
2021/12/07 15:47:21;;;;;;;6.60;2.80;;;;;;;;;;4980377;22;20042;-87
2021/12/07 15:49:52;;;;;;;6.28;2.55;;;;;;;;;;4971130;28;20402;-85
2021/12/07 15:52:19;;;;;;;11.27;3.80;;;;;;;;;;4971260;28;20129;-85
2021/12/07 15:54:54;;;;;;;7.03;2.78;;;;;;;;;;4969922;28;20080;-85
2021/12/07 15:57:20;;;;;;;12.13;2.95;;;;;;;;;;4972551;28;20034;-85
2021/12/07 15:59:56;;;;;;;9.57;3.03;;;;;;;;;;4993596;28;20035;-85
2021/12/07 16:02:22;;;;;;;7.88;3.38;;;;;;;;;;4993518;28;20027;-91
2021/12/07 16:04:48;;;;;;;10.05;2.85;;;;;;;;;;4993683;28;20133;-89
2021/12/07 16:07:23;;;;;;;9.00;2.72;;;;;;;;;;4993391;28;20031;-89
2021/12/07 16:10:06;;;;;;;11.65;3.00;;;;;;;;;;4995213;28;20015;-89
2021/12/07 16:12:32;;;;;;;7.93;3.05;;;;;;;;;;4984775;28;20031;-88
2021/12/07 16:15:12;;;;;;;12.93;3.40;;;;;;;;;;4975067;28;20019;-89
2021/12/07 16:17:38;;;;;;;7.35;3.13;;;;;;;;;;4975358;28;20039;-89
2021/12/07 16:20:08;;;;;;;5.90;2.90;;;;;;;;;;4978100;28;20043;-90
2021/12/07 16:22:35;;;;;;;9.05;3.45;;;;;;;;;;4995367;28;20026;-89
2021/12/07 16:25:03;;;;;;;13.80;4.10;;;;;;;;;;4995568;28;20023;-86
2021/12/07 16:27:29;;;;;;;5.57;2.90;;;;;;;;;;4994821;28;20045;-86